Time;durP1;ratioP1;P1;durP2;ratioP2;P2;SDS_P1;SDS_P2;PMS_P1;PMS_P2;Temp;Humidity;BMP_temperature;BMP_pressure;BME280_temperature;BME280_humidity;BME280_pressure;Samples;Min_cycle;Max_cycle;Signal;HPM_P1;HPM_P2
2021/12/19 00:01:30;;;;;;;21.30;13.90;;;;;;;5.49;100.00;103516.84;5131843;29;20044;-72
2021/12/19 00:09:38;;;;;;;19.63;14.85;;;;;;;5.46;100.00;103501.16;5130924;29;20036;-72
2021/12/19 00:12:10;;;;;;;22.73;14.60;;;;;;;5.48;100.00;103509.88;5131742;29;20043;-72
2021/12/19 00:14:41;;;;;;;22.50;14.93;;;;;;;5.47;100.00;103501.25;5131851;29;20578;-72
2021/12/19 00:17:12;;;;;;;23.67;15.00;;;;;;;5.51;100.00;103497.09;5131481;29;20036;-72
2021/12/19 00:19:44;;;;;;;19.80;14.47;;;;;;;5.48;100.00;103495.22;5131925;29;20110;-70
2021/12/19 00:22:15;;;;;;;22.20;14.37;;;;;;;5.47;100.00;103492.56;5149692;28;20082;-70
2021/12/19 00:24:46;;;;;;;19.53;13.87;;;;;;;5.49;100.00;103496.16;5194264;28;20041;-71
2021/12/19 00:27:18;;;;;;;20.63;14.93;;;;;;;5.47;100.00;103496.06;5194429;28;20026;-71
2021/12/19 00:29:49;;;;;;;22.37;14.77;;;;;;;5.44;100.00;103493.31;5194273;28;20030;-72
2021/12/19 00:32:20;;;;;;;20.57;14.57;;;;;;;5.43;100.00;103494.13;5194166;28;20062;-71
2021/12/19 00:34:52;;;;;;;25.80;14.20;;;;;;;5.44;100.00;103480.38;5194066;28;20066;-72
2021/12/19 00:37:24;;;;;;;21.05;15.32;;;;;;;5.42;100.00;103479.38;5194000;28;20025;-73
2021/12/19 00:39:55;;;;;;;24.37;15.97;;;;;;;5.43;100.00;103485.47;5193953;28;20080;-73
2021/12/19 00:42:32;;;;;;;24.63;16.27;;;;;;;5.42;100.00;103487.16;5194054;28;20030;-72
2021/12/19 00:45:19;;;;;;;26.08;15.02;;;;;;;5.43;100.00;103483.75;5193169;28;20383;-72
2021/12/19 00:47:51;;;;;;;26.88;16.58;;;;;;;5.43;100.00;103478.59;5193433;28;20109;-72
2021/12/19 00:50:23;;;;;;;24.07;15.93;;;;;;;5.46;100.00;103476.16;5193882;28;20041;-72
2021/12/19 00:52:55;;;;;;;25.00;16.75;;;;;;;5.44;100.00;103474.28;5193933;28;20768;-72
2021/12/19 00:55:27;;;;;;;29.13;17.20;;;;;;;5.47;100.00;103474.47;5193815;28;20034;-71
2021/12/19 00:57:59;;;;;;;32.03;19.20;;;;;;;5.41;100.00;103474.13;5193253;28;20038;-72
2021/12/19 01:00:33;;;;;;;34.10;19.20;;;;;;;5.42;100.00;103473.34;5193760;28;20041;-72
2021/12/19 01:03:05;;;;;;;33.03;18.63;;;;;;;5.43;100.00;103472.53;5193273;28;20050;-71
2021/12/19 01:05:40;;;;;;;31.57;18.87;;;;;;;5.38;100.00;103467.13;5193630;28;20105;-71
2021/12/19 01:08:12;;;;;;;36.60;21.50;;;;;;;5.36;100.00;103475.59;5193795;28;20124;-71
2021/12/19 01:10:45;;;;;;;36.63;20.20;;;;;;;5.35;100.00;103477.31;5193733;28;20030;-71
2021/12/19 01:13:18;;;;;;;37.13;21.80;;;;;;;5.32;100.00;103471.09;5193500;28;20034;-71
2021/12/19 01:15:51;;;;;;;;;;;;;;;5.40;100.00;103469.78;5194133;28;20018;-71
2021/12/19 01:18:22;;;;;;;38.85;20.50;;;;;;;5.32;100.00;103466.81;5193196;28;19917;-73
2021/12/19 01:20:54;;;;;;;37.43;22.30;;;;;;;5.34;100.00;103465.16;5193604;28;20034;-72
2021/12/19 01:23:26;;;;;;;38.27;21.60;;;;;;;5.30;100.00;103464.13;5193338;28;20123;-71
2021/12/19 01:25:57;;;;;;;34.73;19.07;;;;;;;5.28;100.00;103451.91;5193318;28;20282;-71
2021/12/19 01:28:28;;;;;;;37.47;20.70;;;;;;;5.28;100.00;103455.41;5193402;28;20041;-71
2021/12/19 01:31:00;;;;;;;34.53;19.33;;;;;;;5.32;100.00;103459.03;5193340;28;20034;-71
2021/12/19 01:33:32;;;;;;;31.38;18.35;;;;;;;5.30;100.00;103452.91;5193163;28;20039;-72
2021/12/19 01:36:04;;;;;;;30.70;16.00;;;;;;;5.30;100.00;103452.91;5193380;28;20073;-71
2021/12/19 01:38:36;;;;;;;32.20;15.68;;;;;;;5.32;100.00;103453.88;5193338;28;20027;-71
2021/12/19 01:41:07;;;;;;;27.37;15.50;;;;;;;5.34;100.00;103443.59;5193373;28;20030;-71
2021/12/19 01:43:38;;;;;;;30.93;17.37;;;;;;;5.32;100.00;103445.22;5193011;28;20045;-71
2021/12/19 01:46:10;;;;;;;30.53;16.17;;;;;;;5.32;100.00;103459.03;5193039;28;20464;-71
2021/12/19 01:48:41;;;;;;;37.20;18.60;;;;;;;5.31;100.00;103454.66;5192882;28;20121;-71
2021/12/19 01:51:13;;;;;;;33.63;16.73;;;;;;;5.26;100.00;103450.97;5193313;28;20026;-71
2021/12/19 01:53:44;;;;;;;31.80;16.90;;;;;;;5.24;100.00;103447.41;5193253;28;20161;-72
2021/12/19 01:56:16;;;;;;;35.33;17.67;;;;;;;5.25;100.00;103444.91;5193301;28;20072;-71
2021/12/19 01:58:47;;;;;;;37.20;17.57;;;;;;;5.23;100.00;103441.38;5193179;28;20434;-72
2021/12/19 02:01:18;;;;;;;37.77;18.03;;;;;;;5.29;100.00;103440.78;5192928;28;20040;-72
2021/12/19 02:03:50;;;;;;;32.60;17.77;;;;;;;5.32;100.00;103442.66;5192679;28;20034;-71
2021/12/19 02:06:21;;;;;;;27.37;16.30;;;;;;;5.27;100.00;103438.09;5192935;28;20038;-71
2021/12/19 02:08:55;;;;;;;35.97;16.33;;;;;;;5.24;100.00;103431.91;5193730;28;20489;-71
2021/12/19 02:11:27;;;;;;;29.77;16.25;;;;;;;5.17;100.00;103433.28;5197148;28;20034;-71
2021/12/19 02:13:59;;;;;;;30.70;16.58;;;;;;;5.19;100.00;103429.06;5196829;28;20164;-71
2021/12/19 02:16:31;;;;;;;25.60;15.30;;;;;;;5.18;100.00;103432.44;5196960;28;20033;-71
2021/12/19 02:19:04;;;;;;;33.05;17.20;;;;;;;5.17;100.00;103430.69;5196846;28;20018;-70
2021/12/19 02:21:35;;;;;;;;;;;;;;;5.20;100.00;103429.94;5197150;28;20062;-70
2021/12/19 02:24:10;;;;;;;31.27;16.23;;;;;;;5.16;100.00;103426.31;5196710;28;20396;-72
2021/12/19 02:26:43;;;;;;;33.47;16.55;;;;;;;5.12;100.00;103427.00;5196754;28;20501;-72
2021/12/19 02:29:15;;;;;;;36.15;18.27;;;;;;;5.09;100.00;103421.66;5196681;28;20038;-71
2021/12/19 02:31:46;;;;;;;33.83;17.67;;;;;;;5.10;100.00;103421.72;5196427;28;20033;-71
2021/12/19 02:34:24;;;;;;;40.63;18.97;;;;;;;5.07;100.00;103412.91;5196547;28;20032;-72
2021/12/19 02:37:06;;;;;;;44.33;20.90;;;;;;;5.03;100.00;103411.88;5196405;28;20031;-71
2021/12/19 02:50:53;;;;;;;52.17;20.48;;;;;;;5.03;100.00;103396.34;5196416;28;20109;-71
2021/12/19 02:53:33;;;;;;;50.15;21.77;;;;;;;5.03;100.00;103395.47;5196051;28;20034;-71
2021/12/19 02:56:07;;;;;;;55.70;22.67;;;;;;;5.04;100.00;103392.97;5195941;28;20071;-71
2021/12/19 02:58:41;;;;;;;52.67;22.80;;;;;;;5.02;100.00;103391.09;5195983;28;20108;-71
2021/12/19 03:01:16;;;;;;;60.75;22.38;;;;;;;5.00;100.00;103384.97;5195962;28;20026;-71
2021/12/19 03:03:48;;;;;;;57.05;24.48;;;;;;;4.99;100.00;103389.25;5196113;28;20026;-71
2021/12/19 03:06:20;;;;;;;62.43;24.70;;;;;;;5.00;100.00;103390.16;5195702;28;20049;-72
2021/12/19 03:08:52;;;;;;;60.97;23.58;;;;;;;5.01;100.00;103377.31;5195784;28;20401;-71
2021/12/19 03:12:00;;;;;;;66.03;26.58;;;;;;;5.00;100.00;103384.97;5196072;28;20470;-72
2021/12/19 03:19:59;;;;;;;73.97;25.38;;;;;;;4.98;100.00;103374.56;5195424;28;20046;-72
2021/12/19 03:22:31;;;;;;;68.90;24.02;;;;;;;4.96;100.00;103376.19;5194664;28;20124;-72
2021/12/19 03:25:03;;;;;;;68.50;24.20;;;;;;;4.98;100.00;103371.97;5195591;28;20089;-72
2021/12/19 03:27:34;;;;;;;63.77;23.67;;;;;;;4.96;100.00;103372.69;5195425;28;20045;-72
2021/12/19 03:30:07;;;;;;;70.07;25.33;;;;;;;4.92;100.00;103361.31;5195811;28;20811;-72
2021/12/19 03:32:38;;;;;;;67.82;23.65;;;;;;;4.90;100.00;103352.59;5195577;28;20118;-72
2021/12/19 03:35:11;;;;;;;80.23;25.20;;;;;;;4.89;100.00;103350.81;5195402;28;20038;-72
2021/12/19 03:37:43;;;;;;;72.13;23.73;;;;;;;4.94;100.00;103346.75;5195810;28;20421;-72
2021/12/19 03:40:22;;;;;;;75.15;24.77;;;;;;;4.93;100.00;103342.41;5195252;28;20499;-73
2021/12/19 03:42:54;;;;;;;84.60;26.65;;;;;;;4.91;100.00;103344.91;5195196;28;20031;-72
2021/12/19 03:45:25;;;;;;;78.28;24.55;;;;;;;4.92;100.00;103353.53;5194919;28;20510;-72
2021/12/19 03:47:57;;;;;;;76.83;25.47;;;;;;;4.89;100.00;103349.13;5195037;28;20524;-72
2021/12/19 03:50:30;;;;;;;72.60;26.63;;;;;;;4.87;100.00;103348.13;5194892;28;20070;-71
2021/12/19 03:53:01;;;;;;;88.68;27.77;;;;;;;4.85;100.00;103346.31;5194800;28;20034;-71
2021/12/19 03:55:33;;;;;;;74.67;24.80;;;;;;;4.90;100.00;103337.97;5194987;28;20506;-72
2021/12/19 03:58:05;;;;;;;64.30;23.00;;;;;;;4.89;100.00;103336.19;5194989;28;20030;-71
2021/12/19 04:00:36;;;;;;;68.60;24.17;;;;;;;4.83;100.00;103337.56;5194540;28;20536;-71
2021/12/19 04:03:10;;;;;;;76.53;23.73;;;;;;;4.87;100.00;103329.16;5194474;28;20274;-71
2021/12/19 04:05:42;;;;;;;70.35;24.55;;;;;;;4.83;100.00;103329.81;5194697;28;20132;-71
2021/12/19 04:08:14;;;;;;;;;;;;;;;4.87;100.00;103334.34;5194971;28;20053;-71
2021/12/19 04:10:47;;;;;;;70.90;23.63;;;;;;;4.78;100.00;103326.97;5194643;28;20357;-72
2021/12/19 04:13:20;;;;;;;69.13;24.13;;;;;;;4.81;100.00;103327.13;5194755;28;20448;-71
2021/12/19 04:15:52;;;;;;;81.35;24.20;;;;;;;4.77;100.00;103324.34;5194295;28;20129;-71
2021/12/19 04:18:23;;;;;;;77.50;24.50;;;;;;;4.77;100.00;103326.94;5194261;28;20076;-72
2021/12/19 04:20:55;;;;;;;77.23;24.70;;;;;;;4.76;100.00;103323.44;5194410;28;20465;-71
2021/12/19 04:23:30;;;;;;;60.03;21.77;;;;;;;4.74;100.00;103309.56;5194071;28;20822;-71
2021/12/19 04:26:02;;;;;;;71.40;21.08;;;;;;;4.70;100.00;103311.09;5194044;28;20065;-71
2021/12/19 04:28:33;;;;;;;59.70;20.93;;;;;;;4.72;100.00;103306.88;5193924;28;20036;-71
2021/12/19 04:31:05;;;;;;;57.53;20.10;;;;;;;4.69;100.00;103304.16;5194283;28;20378;-71
2021/12/19 04:33:39;;;;;;;61.87;20.17;;;;;;;4.78;100.00;103300.25;5193045;28;20030;-71
2021/12/19 04:36:16;;;;;;;58.67;19.67;;;;;;;4.75;100.00;103303.59;5193938;28;20034;-71
2021/12/19 04:53:08;;;;;;;47.55;14.60;;;;;;;4.53;100.00;103294.69;5151126;29;20031;-71
2021/12/19 05:04:25;;;;;;;42.08;15.48;;;;;;;4.49;100.00;103268.63;5150940;29;20043;-72
2021/12/19 05:14:01;;;;;;;51.03;16.20;;;;;;;4.50;100.00;103276.47;5150649;29;20031;-70
2021/12/19 05:15:17;;;;;;;38.95;14.48;;;;;;;4.49;100.00;103271.22;5150901;29;20035;-71
2021/12/19 05:17:48;;;;;;;47.00;15.10;;;;;;;4.47;100.00;103272.84;5150579;29;20031;-70
2021/12/19 05:20:24;;;;;;;47.97;15.20;;;;;;;4.43;100.00;103271.78;5150815;28;20076;-69
2021/12/19 05:23:03;;;;;;;44.25;15.32;;;;;;;4.45;100.00;103275.34;5192870;28;20031;-71
2021/12/19 05:25:34;;;;;;;45.50;14.23;;;;;;;4.45;100.00;103271.88;5193445;28;20029;-71
2021/12/19 05:28:06;;;;;;;44.60;14.37;;;;;;;4.48;100.00;103277.19;5193579;28;20030;-72
2021/12/19 05:30:37;;;;;;;51.20;18.10;;;;;;;4.47;100.00;103280.59;5193439;28;20033;-71
2021/12/19 05:33:09;;;;;;;52.70;17.23;;;;;;;4.43;100.00;103273.47;5193487;28;20038;-72
2021/12/19 05:46:45;;;;;;;56.63;18.23;;;;;;;4.43;100.00;103273.47;5197963;28;20046;-70
2021/12/19 05:49:17;;;;;;;49.53;17.83;;;;;;;4.40;100.00;103268.16;5197720;28;20477;-72
2021/12/19 05:51:48;;;;;;;52.90;17.77;;;;;;;4.38;100.00;103273.25;5197371;28;20033;-71
2021/12/19 05:54:20;;;;;;;49.17;16.00;;;;;;;4.36;100.00;103274.84;5197186;28;20018;-71
2021/12/19 05:56:51;;;;;;;51.50;16.60;;;;;;;4.36;100.00;103272.25;5197458;28;20034;-71
2021/12/19 05:59:23;;;;;;;45.20;17.07;;;;;;;4.35;100.00;103263.63;5197381;28;20022;-71
2021/12/19 06:01:54;;;;;;;35.63;14.50;;;;;;;4.36;100.00;103255.09;5197205;28;20030;-71
2021/12/19 06:04:25;;;;;;;36.63;14.73;;;;;;;4.38;100.00;103252.59;5197208;28;20023;-72
2021/12/19 06:06:57;;;;;;;29.30;12.03;;;;;;;4.33;100.00;103252.34;5196816;28;20053;-71
2021/12/19 06:09:28;;;;;;;27.13;11.90;;;;;;;4.35;100.00;103248.13;5197083;28;20034;-71
2021/12/19 06:12:00;;;;;;;26.63;12.03;;;;;;;4.32;100.00;103247.97;5197337;28;20034;-73
2021/12/19 06:14:33;;;;;;;27.13;11.83;;;;;;;4.33;100.00;103251.44;5196593;28;20046;-72
2021/12/19 06:17:05;;;;;;;28.38;12.13;;;;;;;4.33;100.00;103256.59;5196631;28;20041;-72
2021/12/19 06:19:36;;;;;;;24.83;13.27;;;;;;;4.34;100.00;103253.22;5196855;28;20030;-73
2021/12/19 06:22:08;;;;;;;28.73;14.13;;;;;;;4.37;100.00;103251.69;5196688;28;20117;-72
2021/12/19 06:24:40;;;;;;;27.55;13.52;;;;;;;4.37;100.00;103251.69;5196880;28;20394;-73
2021/12/19 06:27:11;;;;;;;27.87;13.83;;;;;;;4.40;100.00;103250.09;5196624;28;20192;-72
2021/12/19 06:29:42;;;;;;;22.97;13.07;;;;;;;4.40;100.00;103252.69;5196795;28;20034;-72
2021/12/19 06:32:14;;;;;;;30.00;14.57;;;;;;;4.41;100.00;103251.84;5198036;28;20097;-72
2021/12/19 06:34:45;;;;;;;27.00;14.83;;;;;;;4.41;100.00;103250.13;5214826;28;20556;-73
2021/12/19 06:37:17;;;;;;;29.73;15.20;;;;;;;4.40;100.00;103248.38;5217011;28;20097;-72
2021/12/19 06:39:48;;;;;;;34.07;16.13;;;;;;;4.41;100.00;103246.69;5215963;28;20174;-72
2021/12/19 06:42:21;;;;;;;34.97;17.17;;;;;;;4.43;100.00;103243.38;5216182;28;20062;-73
2021/12/19 06:44:52;;;;;;;42.17;19.02;;;;;;;4.41;100.00;103236.34;5215498;28;20479;-72
2021/12/19 06:47:24;;;;;;;40.23;19.57;;;;;;;4.37;100.00;103236.19;5215912;28;20030;-72
2021/12/19 06:49:55;;;;;;;37.77;19.30;;;;;;;4.37;100.00;103236.19;5215975;28;20481;-71
2021/12/19 06:52:26;;;;;;;39.57;19.30;;;;;;;4.39;100.00;103231.09;5215981;28;20021;-73
2021/12/19 06:54:58;;;;;;;45.60;21.67;;;;;;;4.40;100.00;103224.25;5215226;28;20117;-72
2021/12/19 06:57:29;;;;;;;41.17;19.63;;;;;;;4.42;100.00;103213.19;5194703;28;20026;-73
2021/12/19 07:00:03;;;;;;;38.50;19.83;;;;;;;4.46;100.00;103215.13;5195219;28;20030;-73
2021/12/19 07:02:34;;;;;;;41.80;19.48;;;;;;;4.48;100.00;103207.47;5195178;28;20073;-73
2021/12/19 07:05:06;;;;;;;38.10;20.17;;;;;;;4.48;100.00;103207.47;5195165;28;20137;-73
2021/12/19 07:07:38;;;;;;;36.47;18.47;;;;;;;4.50;100.00;103206.72;5194966;28;20030;-73
2021/12/19 07:10:10;;;;;;;36.37;19.70;;;;;;;4.53;100.00;103203.41;5195263;28;20034;-73
2021/12/19 07:12:41;;;;;;;47.53;21.37;;;;;;;4.54;100.00;103208.66;5195741;28;20047;-72
2021/12/19 07:15:17;;;;;;;47.30;22.60;;;;;;;4.53;100.00;103200.84;5195846;28;20320;-72
2021/12/19 07:17:48;;;;;;;50.55;23.42;;;;;;;4.52;100.00;103199.97;5195827;28;20580;-72
2021/12/19 07:20:20;;;;;;;51.70;24.90;;;;;;;4.53;100.00;103200.84;5195579;28;20069;-74
2021/12/19 07:22:51;;;;;;;54.57;26.27;;;;;;;4.52;100.00;103199.97;5195782;28;20573;-74
2021/12/19 07:25:23;;;;;;;44.50;23.37;;;;;;;4.57;100.00;103203.66;5195675;28;20034;-73
2021/12/19 07:27:54;;;;;;;52.97;23.70;;;;;;;4.59;100.00;103202.81;5195541;28;20026;-73
2021/12/19 07:30:26;;;;;;;45.53;22.47;;;;;;;4.61;100.00;103201.22;5195594;28;20038;-73
2021/12/19 07:32:58;;;;;;;50.80;24.83;;;;;;;4.64;100.00;103201.38;5210200;28;20026;-73
2021/12/19 07:35:31;;;;;;;46.35;23.45;;;;;;;4.65;100.00;103201.44;5195390;28;20419;-72
2021/12/19 07:38:08;;;;;;;51.50;23.50;;;;;;;4.71;100.00;103204.31;5193417;28;20037;-73
2021/12/19 07:40:46;;;;;;;54.13;23.67;;;;;;;4.68;100.00;103191.25;5194864;28;20085;-72
2021/12/19 07:43:17;;;;;;;49.58;24.30;;;;;;;4.70;100.00;103196.50;5194963;28;20111;-73
2021/12/19 07:45:49;;;;;;;56.97;25.10;;;;;;;4.69;100.00;103190.47;5195010;28;20137;-73
2021/12/19 07:48:20;;;;;;;48.50;25.33;;;;;;;4.71;100.00;103195.69;5194908;28;20026;-73
2021/12/19 07:50:52;;;;;;;49.67;24.43;;;;;;;4.71;100.00;103191.41;5195178;28;20422;-73
2021/12/19 07:53:24;;;;;;;58.70;25.80;;;;;;;4.70;100.00;103184.50;5195126;28;20030;-72
2021/12/19 07:55:55;;;;;;;60.22;26.17;;;;;;;4.70;100.00;103179.31;5194541;28;20034;-73
2021/12/19 07:58:27;;;;;;;54.27;26.83;;;;;;;4.73;100.00;103176.91;5194861;28;20440;-72
2021/12/19 08:00:58;;;;;;;62.03;27.93;;;;;;;4.74;100.00;103175.19;5195008;28;20027;-74
2021/12/19 08:03:30;;;;;;;59.17;28.40;;;;;;;4.76;100.00;103176.13;5194445;28;20062;-73
2021/12/19 08:06:01;;;;;;;54.63;25.27;;;;;;;4.79;100.00;103180.59;5194744;28;20402;-74
2021/12/19 08:08:34;;;;;;;58.17;26.50;;;;;;;4.77;100.00;103183.09;5194318;28;20070;-74
2021/12/19 08:13:56;;;;;;;54.78;23.73;;;;;;;4.80;100.00;103170.31;5194734;28;19929;-73
2021/12/19 08:16:30;;;;;;;53.93;23.57;;;;;;;4.82;100.00;103176.44;5194468;28;20035;-72
2021/12/19 08:19:01;;;;;;;50.35;23.02;;;;;;;4.81;100.00;103168.63;5194245;28;20029;-73
2021/12/19 08:21:34;;;;;;;44.30;21.70;;;;;;;4.83;100.00;103169.56;5194230;28;20038;-73
2021/12/19 08:24:10;;;;;;;40.40;20.33;;;;;;;4.84;100.00;103173.94;5194413;28;20461;-73
2021/12/19 08:26:43;;;;;;;35.85;18.60;;;;;;;4.89;100.00;103173.38;5194518;28;20042;-73
2021/12/19 08:29:14;;;;;;;;;;;;;;;4.93;100.00;103164.06;5194451;28;20034;-73
2021/12/19 08:31:45;;;;;;;36.70;17.75;;;;;;;4.95;100.00;103165.00;5194340;28;20490;-73
2021/12/19 08:34:17;;;;;;;27.00;15.87;;;;;;;4.98;100.00;103169.47;5194098;28;20061;-73
2021/12/19 08:36:48;;;;;;;26.67;14.27;;;;;;;5.00;100.00;103167.81;5194140;28;20030;-72
2021/12/19 08:39:20;;;;;;;26.33;13.13;;;;;;;5.05;100.00;103174.09;5194110;28;20027;-73
2021/12/19 08:41:51;;;;;;;27.77;13.80;;;;;;;5.08;100.00;103171.66;5193908;28;20030;-72
2021/12/19 08:44:23;;;;;;;28.60;14.63;;;;;;;5.11;100.00;103167.53;5194023;28;20072;-73
2021/12/19 08:46:54;;;;;;;24.10;13.67;;;;;;;5.08;100.00;103169.09;5193926;28;20038;-75
2021/12/19 08:49:25;;;;;;;28.33;14.93;;;;;;;5.10;100.00;103176.13;5193941;28;20033;-73
2021/12/19 08:51:58;;;;;;;30.93;15.17;;;;;;;5.13;100.00;103174.47;5194215;28;20038;-75
2021/12/19 08:54:30;;;;;;;30.17;17.20;;;;;;;5.11;100.00;103167.53;5194119;28;20417;-73
2021/12/19 08:57:02;;;;;;;38.93;21.00;;;;;;;5.17;100.00;103172.13;5193620;28;20117;-73
2021/12/19 08:59:33;;;;;;;39.50;20.97;;;;;;;5.14;100.00;103163.34;5217330;28;20288;-75
2021/12/19 09:02:05;;;;;;;44.27;22.77;;;;;;;5.14;100.00;103164.22;5213384;28;20122;-75
2021/12/19 09:04:36;;;;;;;42.07;21.90;;;;;;;5.13;100.00;103165.00;5216865;28;20025;-75
2021/12/19 09:07:09;;;;;;;41.47;22.60;;;;;;;5.22;100.00;103157.69;5213328;28;20591;-75
2021/12/19 09:09:45;;;;;;;44.13;22.33;;;;;;;5.21;100.00;103158.50;5208088;28;20048;-75
2021/12/19 09:12:16;;;;;;;44.60;21.42;;;;;;;5.22;100.00;103154.25;5212938;28;20049;-75
2021/12/19 09:14:48;;;;;;;44.37;20.73;;;;;;;5.27;100.00;103157.94;5213902;28;20042;-75
2021/12/19 09:17:19;;;;;;;39.53;19.47;;;;;;;5.28;100.00;103150.25;5214172;28;20034;-75
2021/12/19 09:19:51;;;;;;;28.23;16.70;;;;;;;5.29;100.00;103156.28;5213145;28;20025;-75
2021/12/19 09:22:22;;;;;;;36.87;18.43;;;;;;;5.34;100.00;103153.91;5212679;28;20034;-75
2021/12/19 09:24:54;;;;;;;29.40;16.07;;;;;;;5.31;100.00;103149.47;5212764;28;20068;-77
2021/12/19 09:27:26;;;;;;;29.23;14.57;;;;;;;5.33;100.00;103149.56;5213959;28;20055;-75
2021/12/19 09:29:57;;;;;;;29.85;15.63;;;;;;;5.37;100.00;103148.91;5214033;28;20045;-76
2021/12/19 09:32:28;;;;;;;22.10;13.10;;;;;;;5.36;100.00;103135.09;5214084;28;20034;-74
2021/12/19 09:35:00;;;;;;;31.57;14.40;;;;;;;5.42;100.00;103143.09;5213692;28;20048;-75
2021/12/19 09:37:35;;;;;;;21.97;13.37;;;;;;;5.44;100.00;103144.09;5213943;28;20032;-74
2021/12/19 09:40:10;;;;;;;15.95;9.88;;;;;;;5.46;100.00;103137.28;5213320;28;20161;-75
2021/12/19 09:42:47;;;;;;;14.07;8.80;;;;;;;5.50;100.00;103142.59;5213240;28;20120;-74
2021/12/19 09:45:20;;;;;;;14.05;8.55;;;;;;;5.54;100.00;103141.91;5213406;28;20510;-75
2021/12/19 09:47:51;;;;;;;15.52;8.50;;;;;;;5.55;100.00;103138.50;5213301;28;20044;-77
2021/12/19 09:50:23;;;;;;;11.67;6.87;;;;;;;5.60;100.00;103143.09;5213388;28;20022;-77
2021/12/19 09:52:56;;;;;;;12.40;7.03;;;;;;;5.63;100.00;103139.75;5213488;28;20083;-74
2021/12/19 09:55:28;;;;;;;10.00;6.43;;;;;;;5.64;100.00;103141.53;5213246;28;20117;-76
2021/12/19 09:57:59;;;;;;;19.80;8.80;;;;;;;5.66;100.00;103135.56;5211868;28;20105;-76
2021/12/19 10:00:30;;;;;;;14.20;7.77;;;;;;;5.71;100.00;103133.19;5213445;28;20112;-74
2021/12/19 10:03:03;;;;;;;17.23;9.40;;;;;;;5.72;100.00;103140.16;5213354;28;20091;-73
2021/12/19 10:05:34;;;;;;;12.93;6.68;;;;;;;5.71;100.00;103146.16;5213334;28;20029;-75
2021/12/19 10:08:06;;;;;;;12.20;6.93;;;;;;;5.71;100.00;103134.91;5213398;28;20025;-74
2021/12/19 10:10:53;;;;;;;16.57;9.47;;;;;;;5.73;100.00;103138.44;5213280;28;20026;-76
2021/12/19 10:13:33;;;;;;;13.40;8.48;;;;;;;5.77;100.00;103127.44;5213300;28;20037;-76
2021/12/19 10:16:29;;;;;;;14.43;8.52;;;;;;;5.81;100.00;103118.97;5213214;28;20038;-75
2021/12/19 10:19:01;;;;;;;14.50;7.95;;;;;;;5.84;100.00;103132.97;5213169;28;20053;-75
2021/12/19 10:21:35;;;;;;;13.27;9.20;;;;;;;5.82;100.00;103115.56;5213009;28;20584;-73
2021/12/19 10:24:09;;;;;;;12.35;8.57;;;;;;;5.83;100.00;103113.06;5213056;28;20022;-74
2021/12/19 10:26:43;;;;;;;11.70;8.65;;;;;;;5.87;100.00;103108.03;5212510;28;20029;-74
2021/12/19 10:29:14;;;;;;;16.02;8.80;;;;;;;5.85;100.00;103110.53;5213201;28;20065;-74
2021/12/19 10:32:02;;;;;;;14.97;10.00;;;;;;;5.93;100.00;103105.69;5216611;28;20034;-75
2021/12/19 10:34:33;;;;;;;15.23;9.65;;;;;;;5.90;100.00;103105.56;5217077;28;20412;-75
2021/12/19 10:37:05;;;;;;;14.77;9.20;;;;;;;5.98;100.00;103101.63;5216727;28;20095;-75
2021/12/19 10:39:38;;;;;;;14.03;8.47;;;;;;;6.00;100.00;103097.41;5216989;28;20033;-74
2021/12/19 10:42:11;;;;;;;17.23;11.45;;;;;;;6.06;100.00;103096.81;5216444;28;20026;-74
2021/12/19 10:47:34;;;;;;;13.35;8.52;;;;;;;6.12;100.00;103092.75;5216677;28;20049;-75
2021/12/19 10:50:06;;;;;;;14.70;8.07;;;;;;;6.13;100.00;103088.47;5216433;28;20462;-74
2021/12/19 10:52:38;;;;;;;13.43;8.63;;;;;;;6.12;100.00;103085.00;5216544;28;20046;-74
2021/12/19 10:55:12;;;;;;;12.38;8.25;;;;;;;6.03;100.00;103076.81;5216259;28;20033;-74
2021/12/19 10:57:44;;;;;;;11.48;8.07;;;;;;;5.99;100.00;103080.13;5216329;28;20128;-75
2021/12/19 11:00:26;;;;;;;13.47;7.77;;;;;;;6.00;100.00;103080.16;5216322;28;20057;-74
2021/12/19 11:02:58;;;;;;;12.50;8.13;;;;;;;5.94;100.00;103073.78;5216291;28;20037;-74
2021/12/19 11:05:34;;;;;;;11.63;8.23;;;;;;;5.98;100.00;103075.75;5215842;28;20029;-74
2021/12/19 11:08:08;;;;;;;16.77;10.35;;;;;;;5.99;100.00;103073.22;5216217;28;20454;-74
2021/12/19 11:10:41;;;;;;;17.27;9.10;;;;;;;6.09;100.00;103060.69;5216096;28;20493;-73
2021/12/19 11:13:16;;;;;;;21.88;19.77;;;;;;;6.14;100.00;103067.81;5216093;28;20481;-74
2021/12/19 11:15:49;;;;;;;10.98;6.25;;;;;;;6.18;100.00;103056.78;5215668;28;20033;-75
2021/12/19 11:18:21;;;;;;;8.32;5.95;;;;;;;6.25;100.00;103049.22;5216071;28;20026;-75
2021/12/19 11:20:52;;;;;;;7.40;5.23;;;;;;;6.28;100.00;103044.19;5214697;28;20038;-73
2021/12/19 11:23:26;;;;;;;9.03;6.40;;;;;;;6.36;100.00;103048.00;5215843;28;20486;-75
2021/12/19 11:25:58;;;;;;;7.93;5.28;;;;;;;6.33;100.00;103030.59;5215724;28;20032;-75
2021/12/19 11:28:30;;;;;;;10.57;6.53;;;;;;;6.32;100.00;103034.00;5215401;28;20034;-74
2021/12/19 11:31:02;;;;;;;6.50;5.00;;;;;;;6.28;100.00;103020.88;5215824;28;20040;-74
2021/12/19 11:33:48;;;;;;;11.90;5.90;;;;;;;6.29;100.00;103015.75;5215619;28;20107;-75
2021/12/19 11:36:20;;;;;;;9.75;7.38;;;;;;;6.28;100.00;103010.50;5215579;28;20049;-74
2021/12/19 11:38:52;;;;;;;8.90;6.60;;;;;;;6.24;100.00;103008.63;5214375;28;20029;-75
2021/12/19 11:41:24;;;;;;;9.10;7.00;;;;;;;6.22;100.00;103005.97;5214104;28;20084;-76
2021/12/19 11:43:58;;;;;;;9.13;6.83;;;;;;;6.30;100.00;102999.41;5214900;28;20026;-75
2021/12/19 11:46:43;;;;;;;11.38;7.63;;;;;;;6.30;100.00;103007.16;5215249;28;20551;-74
2021/12/19 11:49:21;;;;;;;12.00;7.93;;;;;;;6.34;100.00;103001.31;5215391;28;20485;-74
2021/12/19 11:52:30;;;;;;;8.40;6.88;;;;;;;6.38;100.00;103010.06;5215379;28;20029;-73
2021/12/19 11:55:13;;;;;;;8.32;6.30;;;;;;;6.28;100.00;103002.72;5212675;28;20500;-75
2021/12/19 11:58:11;;;;;;;10.52;6.68;;;;;;;6.27;100.00;102996.69;5212244;28;20512;-75
2021/12/19 12:00:50;;;;;;;7.78;5.90;;;;;;;6.23;100.00;102996.50;5212941;28;20034;-74
2021/12/19 12:03:45;;;;;;;9.38;7.22;;;;;;;6.22;100.00;102989.56;5212390;28;20034;-75
2021/12/19 12:06:21;;;;;;;8.57;6.25;;;;;;;6.26;100.00;102988.84;5196456;28;20041;-75
2021/12/19 12:09:07;;;;;;;8.05;5.65;;;;;;;6.23;100.00;102988.72;5212377;28;20050;-74
2021/12/19 12:12:00;;;;;;;8.20;5.55;;;;;;;6.28;100.00;102979.41;5212243;28;20030;-74
2021/12/19 12:14:36;;;;;;;7.32;5.22;;;;;;;6.26;100.00;102981.06;5211679;28;20064;-73
2021/12/19 12:17:21;;;;;;;7.28;5.45;;;;;;;6.33;100.00;102983.09;5212390;28;20121;-77
2021/12/19 12:19:58;;;;;;;7.97;5.80;;;;;;;6.38;100.00;102982.44;5212273;28;20096;-74
2021/12/19 12:22:37;;;;;;;9.40;6.78;;;;;;;6.41;100.00;102978.22;5211285;28;20046;-75
2021/12/19 12:25:18;;;;;;;5.88;4.50;;;;;;;6.39;100.00;102972.97;5211354;28;20113;-75
2021/12/19 12:27:54;;;;;;;7.30;4.90;;;;;;;6.35;100.00;102965.91;5211974;28;20041;-74
2021/12/19 12:30:28;;;;;;;6.85;4.57;;;;;;;6.31;100.00;102962.31;5214331;28;20507;-74
2021/12/19 12:33:01;;;;;;;6.15;4.72;;;;;;;6.33;100.00;102963.25;5214454;28;20022;-74
2021/12/19 12:35:38;;;;;;;9.48;6.88;;;;;;;6.37;100.00;102959.94;5214426;28;20026;-75
2021/12/19 12:38:10;;;;;;;7.85;6.18;;;;;;;6.37;100.00;102959.06;5213521;28;20088;-75
2021/12/19 12:43:24;;;;;;;7.55;5.50;;;;;;;6.36;100.00;102947.84;5211472;28;20033;-75
2021/12/19 12:46:03;;;;;;;8.13;5.28;;;;;;;6.34;100.00;102944.31;5215396;28;20140;-75
2021/12/19 12:48:40;;;;;;;9.30;5.07;;;;;;;6.41;100.00;102940.25;5196349;28;20042;-76
2021/12/19 12:51:43;;;;;;;7.47;5.03;;;;;;;6.36;100.00;102932.28;5213775;28;20425;-74
2021/12/19 12:54:22;;;;;;;7.43;5.13;;;;;;;6.39;100.00;102939.28;5213003;28;20113;-74